Time;durP1;ratioP1;P1;durP2;ratioP2;P2;SDS_P1;SDS_P2;PMS_P1;PMS_P2;Temp;Humidity;BMP_temperature;BMP_pressure;BME280_temperature;BME280_humidity;BME280_pressure;Samples;Min_cycle;Max_cycle;Signal;HPM_P1;HPM_P2
2022/11/09 00:08:53;;;;;;;12.6;21.7;;;;;;;3.5;88.5;98930;;;;
2022/11/09 00:19:52;;;;;;;14.3;25.4;;;;;;;3.5;88.6;98930;;;;
2022/11/09 00:29:53;;;;;;;14.3;25.4;;;;;;;3.4;88.7;98930;;;;
2022/11/09 00:40:53;;;;;;;14.3;25.4;;;;;;;3.3;88.7;98930;;;;
2022/11/09 00:51:53;;;;;;;13.2;21.5;;;;;;;3.2;88.4;98940;;;;
2022/11/09 01:02:52;;;;;;;13.2;21.5;;;;;;;3;88.1;98940;;;;
2022/11/09 01:12:52;;;;;;;13.2;21.5;;;;;;;2.7;88.1;98940;;;;
2022/11/09 01:23:53;;;;;;;23;36.1;;;;;;;2.7;88.4;98920;;;;
2022/11/09 01:33:53;;;;;;;23;36.1;;;;;;;2.7;88.6;98920;;;;
2022/11/09 01:43:54;;;;;;;23;36.1;;;;;;;2.8;89.2;98910;;;;
2022/11/09 01:54:53;;;;;;;13.4;24.7;;;;;;;2.9;89.9;98890;;;;
2022/11/09 02:04:53;;;;;;;13.4;24.7;;;;;;;3;89.9;98900;;;;
2022/11/09 02:15:53;;;;;;;13.4;24.7;;;;;;;2.5;89;98900;;;;
2022/11/09 02:25:53;;;;;;;12;19.3;;;;;;;2.5;89;98890;;;;
2022/11/09 02:35:53;;;;;;;12;19.3;;;;;;;2.4;88.6;98900;;;;
2022/11/09 02:46:53;;;;;;;12;19.3;;;;;;;2.3;88.3;98890;;;;
2022/11/09 02:57:53;;;;;;;18.5;29.5;;;;;;;2.2;88.4;98890;;;;
2022/11/09 03:07:53;;;;;;;18.5;29.5;;;;;;;2.2;88.5;98880;;;;
2022/11/09 03:18:53;;;;;;;15.7;28.2;;;;;;;2.2;88.9;98880;;;;
2022/11/09 03:29:53;;;;;;;15.7;28.2;;;;;;;2.2;89.5;98880;;;;
2022/11/09 03:40:53;;;;;;;15.7;28.2;;;;;;;2.3;89.7;98890;;;;
2022/11/09 03:51:53;;;;;;;10.3;15.9;;;;;;;2.2;89.4;98870;;;;
2022/11/09 04:02:53;;;;;;;10.3;15.9;;;;;;;2.1;89.1;98880;;;;
2022/11/09 04:13:53;;;;;;;10.3;15.9;;;;;;;1.9;88.6;98890;;;;
2022/11/09 04:23:53;;;;;;;12.6;17.7;;;;;;;1.8;88.6;98880;;;;
2022/11/09 04:33:53;;;;;;;12.6;17.7;;;;;;;1.7;88.4;98880;;;;
2022/11/09 04:44:53;;;;;;;12.6;17.7;;;;;;;1.7;88.5;98880;;;;
2022/11/09 04:55:53;;;;;;;15.2;27.2;;;;;;;1.6;88.6;98880;;;;
2022/11/09 05:06:53;;;;;;;15.2;27.2;;;;;;;1.6;89.3;98860;;;;
2022/11/09 05:17:53;;;;;;;10.1;17.1;;;;;;;1.7;90.3;98860;;;;
2022/11/09 05:28:53;;;;;;;10.1;17.1;;;;;;;1.8;90.8;98860;;;;
2022/11/09 05:39:53;;;;;;;10.1;17.1;;;;;;;1.8;90.4;98860;;;;
2022/11/09 05:50:53;;;;;;;12.8;23;;;;;;;1.9;90.3;98880;;;;
2022/11/09 06:00:53;;;;;;;12.8;23;;;;;;;1.9;89.9;98880;;;;
2022/11/09 06:11:53;;;;;;;12.8;23;;;;;;;1.8;89.3;98890;;;;
2022/11/09 06:22:53;;;;;;;16.4;25.1;;;;;;;2.1;89.5;98890;;;;
2022/11/09 06:32:53;;;;;;;16.4;25.1;;;;;;;2.3;89.5;98900;;;;
2022/11/09 06:42:53;;;;;;;16.4;25.1;;;;;;;2.5;89.7;98900;;;;
2022/11/09 06:53:53;;;;;;;15.3;25.8;;;;;;;2.9;89.9;98890;;;;
2022/11/09 07:03:53;;;;;;;15.3;25.8;;;;;;;3.2;90;98890;;;;
2022/11/09 07:13:53;;;;;;;15.3;25.8;;;;;;;3.5;90;98890;;;;
2022/11/09 07:23:53;;;;;;;12.9;24.9;;;;;;;3.8;90;98890;;;;
2022/11/09 07:33:53;;;;;;;12.9;24.9;;;;;;;4.4;90.2;98890;;;;
2022/11/09 07:44:53;;;;;;;12.9;24.9;;;;;;;5.1;90.6;98890;;;;
2022/11/09 07:54:53;;;;;;;17.8;24.8;;;;;;;5.8;90.5;98890;;;;
2022/11/09 08:04:53;;;;;;;17.8;24.8;;;;;;;6.6;90.3;98870;;;;
2022/11/09 08:15:53;;;;;;;17.8;24.8;;;;;;;7.3;90;98860;;;;
2022/11/09 08:25:53;;;;;;;24.9;30.9;;;;;;;8;88.2;98860;;;;
2022/11/09 08:36:53;;;;;;;24.9;30.9;;;;;;;8.6;86.6;98860;;;;
2022/11/09 08:47:53;;;;;;;32.9;39.5;;;;;;;9.1;85.4;98860;;;;
2022/11/09 08:57:53;;;;;;;32.9;39.5;;;;;;;9.5;83.8;98860;;;;
2022/11/09 09:08:53;;;;;;;32.9;39.5;;;;;;;9.7;82.9;98850;;;;
2022/11/09 09:18:53;;;;;;;24.6;28.2;;;;;;;10.1;81.7;98840;;;;
2022/11/09 09:29:53;;;;;;;24.6;28.2;;;;;;;10.8;80.9;98830;;;;
2022/11/09 09:40:53;;;;;;;24.6;28.2;;;;;;;11.4;79.2;98830;;;;
2022/11/09 09:50:53;;;;;;;24.6;32.8;;;;;;;12.2;77.4;98820;;;;
2022/11/09 10:00:53;;;;;;;24.6;32.8;;;;;;;12.6;75.1;98810;;;;
2022/11/09 10:11:53;;;;;;;24.6;32.8;;;;;;;13;71.5;98820;;;;
2022/11/09 10:22:53;;;;;;;17.7;24.2;;;;;;;13.1;69.9;98810;;;;
2022/11/09 10:32:53;;;;;;;17.7;24.2;;;;;;;13.4;70.7;98800;;;;
2022/11/09 10:43:53;;;;;;;17.7;24.2;;;;;;;13.9;70.3;98810;;;;
2022/11/09 10:53:53;;;;;;;18.8;24.3;;;;;;;14;69.4;98800;;;;
2022/11/09 11:04:53;;;;;;;18.8;24.3;;;;;;;14;68.7;98800;;;;
2022/11/09 11:14:53;;;;;;;18.8;24.3;;;;;;;14.1;68.1;98790;;;;
2022/11/09 11:25:53;;;;;;;19.1;27.9;;;;;;;14.2;68.9;98790;;;;
2022/11/09 11:36:53;;;;;;;19.1;27.9;;;;;;;14.5;67.7;98780;;;;
2022/11/09 11:47:53;;;;;;;16.1;20.6;;;;;;;14.5;66.5;98780;;;;
2022/11/09 11:58:53;;;;;;;16.1;20.6;;;;;;;14.7;65.9;98780;;;;
2022/11/09 12:08:53;;;;;;;16.1;20.6;;;;;;;15;64.6;98780;;;;
2022/11/09 12:19:53;;;;;;;12.2;15.6;;;;;;;15;63.3;98770;;;;
2022/11/09 12:30:53;;;;;;;12.2;15.6;;;;;;;15.2;63.1;98770;;;;
2022/11/09 12:41:53;;;;;;;12.2;15.6;;;;;;;15.3;63;98770;;;;
2022/11/09 12:52:53;;;;;;;12.8;20.6;;;;;;;15.2;61.9;98770;;;;
2022/11/09 13:02:53;;;;;;;12.8;20.6;;;;;;;15.2;61.8;98780;;;;
2022/11/09 13:12:53;;;;;;;12.8;20.6;;;;;;;15.1;61;98780;;;;
2022/11/09 13:23:53;;;;;;;10;14.4;;;;;;;15;62.7;98780;;;;
2022/11/09 13:34:53;;;;;;;10;14.4;;;;;;;15;62.9;98790;;;;
2022/11/09 13:45:53;;;;;;;9.7;12.5;;;;;;;14.9;63.2;98780;;;;
2022/11/09 13:55:53;;;;;;;9.7;12.5;;;;;;;14.6;63.4;98780;;;;
2022/11/09 14:05:53;;;;;;;9.7;12.5;;;;;;;14.3;64.4;98770;;;;
2022/11/09 14:16:53;;;;;;;9.7;13.9;;;;;;;13.9;65.6;98770;;;;
2022/11/09 14:26:54;;;;;;;9.7;13.9;;;;;;;13.4;66.4;98780;;;;
2022/11/09 14:36:53;;;;;;;9.7;13.9;;;;;;;13;67.3;98780;;;;
2022/11/09 14:47:53;;;;;;;9.7;13.5;;;;;;;12.4;68.6;98770;;;;
2022/11/09 14:57:53;;;;;;;9.7;13.5;;;;;;;12;69.5;98770;;;;
2022/11/09 15:07:53;;;;;;;9.7;13.5;;;;;;;11.4;70.5;98780;;;;
2022/11/09 15:18:53;;;;;;;10.6;14.8;;;;;;;10.9;71.6;98780;;;;
2022/11/09 15:28:53;;;;;;;10.6;14.8;;;;;;;10.7;73.6;98780;;;;
2022/11/09 15:39:53;;;;;;;10.6;14.8;;;;;;;10.4;75;98780;;;;
2022/11/09 15:49:53;;;;;;;11.6;18.1;;;;;;;10.1;75;98780;;;;
2022/11/09 15:59:53;;;;;;;11.6;18.1;;;;;;;9.8;76.3;98780;;;;
2022/11/09 16:09:53;;;;;;;11.6;18.1;;;;;;;9.6;77.9;98790;;;;
2022/11/09 16:19:53;;;;;;;20.7;30.5;;;;;;;9.3;77.5;98790;;;;
2022/11/09 16:30:53;;;;;;;20.7;30.5;;;;;;;9.1;78.6;98790;;;;
2022/11/09 16:41:53;;;;;;;20.7;30.5;;;;;;;8.8;78.9;98800;;;;
2022/11/09 16:52:53;;;;;;;31.6;45.3;;;;;;;8.5;79.2;98800;;;;
2022/11/09 17:02:53;;;;;;;31.6;45.3;;;;;;;8.2;79.6;98810;;;;
2022/11/09 17:13:53;;;;;;;31.6;45.3;;;;;;;8.1;81.1;98820;;;;
2022/11/09 17:24:53;;;;;;;32;44.1;;;;;;;7.8;81.5;98830;;;;
2022/11/09 17:34:53;;;;;;;32;44.1;;;;;;;7.6;82.2;98830;;;;
2022/11/09 17:45:53;;;;;;;26.9;37.6;;;;;;;7.3;82.4;98840;;;;
2022/11/09 17:55:53;;;;;;;26.9;37.6;;;;;;;7.2;83.2;98840;;;;
2022/11/09 18:05:53;;;;;;;26.9;37.6;;;;;;;7.2;84;98840;;;;
2022/11/09 18:16:53;;;;;;;17.9;27.5;;;;;;;7.5;86.2;98850;;;;
2022/11/09 18:26:53;;;;;;;17.9;27.5;;;;;;;7.7;86.7;98850;;;;
2022/11/09 18:37:54;;;;;;;17.9;27.5;;;;;;;7.7;86.8;98850;;;;
2022/11/09 18:47:55;;;;;;;24.8;33.9;;;;;;;8;88.3;98860;;;;
2022/11/09 18:57:53;;;;;;;24.8;33.9;;;;;;;7.9;87.7;98860;;;;
2022/11/09 19:09:57;;;;;;;24.8;33.9;;;;;;;7.9;87.8;98850;;;;
2022/11/09 19:18:53;;;;;;;30.9;42.5;;;;;;;7.9;87.9;98850;;;;
2022/11/09 19:28:53;;;;;;;30.9;42.5;;;;;;;7.8;87.8;98860;;;;
2022/11/09 19:38:53;;;;;;;30.9;42.5;;;;;;;7.8;88.3;98850;;;;
2022/11/09 19:49:53;;;;;;;28.8;37.7;;;;;;;7.7;88.4;98850;;;;
2022/11/09 20:00:53;;;;;;;28.8;37.7;;;;;;;7.5;87.7;98850;;;;
2022/11/09 20:10:53;;;;;;;28.8;37.7;;;;;;;7.2;87;98850;;;;
2022/11/09 20:21:53;;;;;;;29.6;42.1;;;;;;;6.7;86.7;98850;;;;
2022/11/09 20:31:53;;;;;;;29.6;42.1;;;;;;;6.5;86.9;98850;;;;
2022/11/09 20:41:53;;;;;;;29.6;42.1;;;;;;;6.4;87.2;98850;;;;
2022/11/09 20:51:53;;;;;;;26;44.4;;;;;;;6.1;87;98860;;;;
2022/11/09 21:02:53;;;;;;;26;44.4;;;;;;;5.8;87;98860;;;;
2022/11/09 21:13:53;;;;;;;26;44.4;;;;;;;5.7;87.8;98860;;;;
2022/11/09 21:34:53;;;;;;;25.4;40.8;;;;;;;5.4;87.8;98880;;;;
2022/11/09 21:45:53;;;;;;;24.4;41;;;;;;;5.2;87.6;98890;;;;
2022/11/09 21:56:53;;;;;;;24.4;41;;;;;;;5;87.8;98900;;;;
2022/11/09 22:06:53;;;;;;;24.4;41;;;;;;;4.8;87.7;98910;;;;
2022/11/09 22:16:53;;;;;;;26.6;42.1;;;;;;;4.7;88.1;98910;;;;
2022/11/09 22:26:53;;;;;;;26.6;42.1;;;;;;;4.9;88.9;98920;;;;
2022/11/09 22:37:53;;;;;;;26.6;42.1;;;;;;;5.3;90.3;98910;;;;
2022/11/09 22:48:53;;;;;;;28.9;47.9;;;;;;;5.5;91.2;98920;;;;
2022/11/09 22:58:53;;;;;;;28.9;47.9;;;;;;;5.8;91.6;98930;;;;
2022/11/09 23:09:53;;;;;;;28.9;47.9;;;;;;;6.2;92.5;98930;;;;
2022/11/09 23:20:53;;;;;;;33.2;54.5;;;;;;;6.6;93.2;98930;;;;
2022/11/09 23:30:53;;;;;;;33.2;54.5;;;;;;;6.8;93.9;98940;;;;
2022/11/09 23:41:53;;;;;;;33.2;54.5;;;;;;;6.9;93.9;98960;;;;
2022/11/09 23:52:54;;;;;;;38.9;56;;;;;;;7;93.7;98960;;;;
